Vremea mâine în Cavnic - Romania

Vrei sa afli care e starea vremii acum in Maramures - Romania? Dorim sa iti furnizam starea vremii pentru Maramures - Romania. Starea vremii Maramures - Romania pentru astazi.

Vremea mâine în Cavnic

Temperatura minimă:
8.3 °C

Temperatura maximă:
22.3 °C

Mâine va fi: Senin
Precipitații: 0 %
Umiditate: 60%
Viteza maximă vânt mâine:
12.2 km/h

Evoluția vremii in Cavnic pe ore mâine

Ora: 05:00
Temperatura: °C
Sansa de precipitatii: %
Ora Descriere Temp Se simte Precipitatii Umiditate Vant
00:00Senin10.3°10°0%75%E 5.4 KM/H
01:00Senin9.9°9.8°0%75%E 4.7 KM/H
02:00Senin9.6°9.3°0%75%E 5 KM/H
03:00Senin9.2°8.8°0%77%E 5 KM/H
04:00Senin8.9°8.5°0%78%E 5 KM/H
05:00Senin8.5°0%79%E 5.4 KM/H
06:00Senin8.3°7.5°0%81%ESE 5.8 KM/H
07:00Senin9.2°8.5°0%79%ESE 6.1 KM/H
08:00Senin13.5°13.6°0%70%SE 5.8 KM/H
09:00Senin16.2°16.2°0%62%SSE 6.5 KM/H
10:00Senin17.9°17.9°0%55%SSE 7.9 KM/H
11:00Senin19.3°19.3°0%49%S 9.4 KM/H
12:00Senin20.4°20.4°0%46%S 11.2 KM/H
13:00Senin21.2°21.2°0%43%S 12.2 KM/H
14:00Senin21.8°21.8°0%41%S 11.9 KM/H
15:00Senin22.2°24.1°0%40%S 11.2 KM/H
16:00Senin22.3°24.1°0%39%S 10.1 KM/H
17:00Senin22.2°24°0%39%S 8.6 KM/H
18:00Senin21.6°21.6°0%42%SSW 7.6 KM/H
19:00Senin20.5°20.5°0%54%SSW 4.7 KM/H
20:00Senin15.3°15.3°0%61%SE 4 KM/H
21:00Senin13°12.9°0%62%ESE 6.1 KM/H
22:00Senin12.2°11.9°0%63%E 6.5 KM/H
23:00Senin11.8°11.3°0%63%E 6.8 KM/H




tutorials